Terminal Aerodrome Forecast
Issued by NWS Knoxville/Tri Cities, TN

Home | Current Version | Previous Version | Text Only | Print | Product List | Glossary On
Versions: 1 2 3 4 5 6 7 8 9 10 11 12 13 14 15 16 17 18 19 20 21 22 23
000
FTUS44 KMRX 080520
TAFTYS
TAF
KTYS 080520Z 0806/0906 23005KT P6SM BKN250
     FM081000 23006KT P6SM BKN050 OVC100
     FM081200 23006KT 6SM -RA BR OVC020
     FM081500 24011KT P6SM VCSH OVC035
     FM081800 24015G22KT P6SM -SHRA OVC050
     FM082300 25012KT 6SM -SHRA BR OVC025
     FM090300 25011KT P6SM -SHSN OVC025=

USA.gov is the U.S. government's official web portal to all federal, state and local government web resources and services.